KFTK/FTK METAR and TAF weather

Enter ICAO airport designator
Station Type Date Time Source
KFTK METAR 2019/10/15 07:56 UTC NOAA

KFTK 150756Z AUTO 00000KT 10SM CLR 07/05 A3009 RMK AO2 SLP191 T00680053 $


Station Type Date Time Source
KFTK Decoded METAR 2019/10/15 07:56 UTC NOAA

Fort Knox, KY, United States (KFTK) 37-54N 085-58W 230M
Oct 15, 2019 - 03:56 AM EDT / 2019.10.15 0756 UTC
Wind: Calm:0
Visibility: 10 mile(s):0
Sky conditions: clear
Temperature: 44.2 F (6.8 C)
Dew Point: 41.5 F (5.3 C)
Relative Humidity: 90%
Pressure (altimeter): 30.09 in. Hg (1018 hPa)
ob: KFTK 150756Z AUTO 00000KT 10SM CLR 07/05 A3009 RMK AO2 SLP191 T00680053
cycle: 8

Station Type Date Time Source
KFTK TAF 2019/10/15 01:06 UTC NOAA

TAF KFTK 150100Z 1501/1607 VRB06KT 9999 SKC QNH3007INS
BECMG 1513/1514 VRB06KT 9999 BKN030 QNH3003INS
BECMG 1516/1517 21012G18KT 9999 BKN030 QNH2996INS
BECMG 1521/1522 22009KT 9999 OVC030 QNH2988INS
BECMG 1523/1524 23006KT 8000 -SHRA OVC020 QNH2986INS
BECMG 1602/1603 23006KT 8000 -SHRA SCT005 BKN010 QNH2981INS
TEMPO 1603/1607 BKN005 BKN010 TX23/1520Z TN07/1511Z

Example: see airport list